Blountstown, Florida
Current Conditions -  °F | °C
As of 6:53 PM on Saturday 22 Nov 2014 (Local Time) from KMAI Reporting Station
Moderate Rain Moderate Rain  
Wind Chill: 61°   Ceiling: 800
Heat Index: 61°   Visibility: 10mi
Dew Point: 61°   Wind: 9mph
Humidity: 100%   Direction: 90°E
Pressure: 30.13"   Gusts: NA
Location:  30.44°N, 85.05°W
Report Text: KMAI 230053Z AUTO 09008KT 10SM RA OVC008 16/16 A3013 RMK AO2 CIG 007V011 SLP204 T01610161 PNO $
Loading
Personal Weather Stations






























Interactive Weather Map New forecast layout! Learn more

10-Day Weather Forecast

Advertisements
Track Severe Weather on mobile